Linwood, Texas
Current Conditions -  °F | °C
As of 5:55 PM on Friday 31 Oct 2014 (Local Time) from KJSO Reporting Station
Clear Clear  
Wind Chill: 64°   Ceiling: Unl
Heat Index: 64°   Visibility: 10mi
Dew Point: 41°   Wind: 7mph
Humidity: 42%   Direction: 360°N
Pressure: 30.26"   Gusts: NA
Location:  31.6384°N, 95.0772°W
Report Text: KJSO 312255Z AUTO 36006KT 10SM CLR 17/05 A3026 RMK AO2 T01800050
Loading
Personal Weather Stations






























Interactive Weather Map
Tropical Storm Tracking
New forecast layout! Learn more

10-Day Weather Forecast

Advertisements
Track Severe Weather on mobile